Time;durP1;ratioP1;P1;durP2;ratioP2;P2;SDS_P1;SDS_P2;PMS_P1;PMS_P2;Temp;Humidity;BMP_temperature;BMP_pressure;BME280_temperature;BME280_humidity;BME280_pressure;Samples;Min_cycle;Max_cycle;Signal;HPM_P1;HPM_P2
2022/12/12 00:01:29;;;;;;;3.50;1.60;;;;;;;8.08;98.46;100304.63;5025487;28;20470;-74
2022/12/12 00:03:57;;;;;;;2.83;1.60;;;;;;;8.09;98.21;100302.94;5025856;28;20049;-74
2022/12/12 00:06:29;;;;;;;2.33;1.35;;;;;;;8.05;99.05;100304.53;5020828;28;20045;-72
2022/12/12 00:08:57;;;;;;;2.40;1.50;;;;;;;8.05;98.64;100301.97;5017042;28;20050;-72
2022/12/12 00:11:28;;;;;;;5.53;1.60;;;;;;;8.06;99.06;100303.69;5023259;28;20506;-73
2022/12/12 00:13:56;;;;;;;3.35;1.30;;;;;;;8.04;99.00;100305.38;5017616;28;20061;-73
2022/12/12 00:16:25;;;;;;;1.90;1.15;;;;;;;8.09;98.44;100314.13;5022426;28;20072;-72
2022/12/12 00:18:55;;;;;;;3.63;1.50;;;;;;;8.09;98.42;100314.13;5018823;28;20057;-72
2022/12/12 00:21:25;;;;;;;2.00;1.42;;;;;;;8.10;99.47;100315.88;5027201;28;20053;-73
2022/12/12 00:23:55;;;;;;;2.53;1.58;;;;;;;8.07;99.25;100320.94;5026211;28;20451;-72
2022/12/12 00:26:26;;;;;;;3.40;2.05;;;;;;;8.05;99.92;100317.44;5023354;28;20049;-72
2022/12/12 00:28:55;;;;;;;1.92;1.17;;;;;;;8.05;99.89;100320.00;5019342;28;20037;-72
2022/12/12 00:31:24;;;;;;;4.35;1.33;;;;;;;8.04;99.68;100326.00;5020223;28;20263;-72
2022/12/12 00:33:53;;;;;;;2.70;1.40;;;;;;;8.05;100.00;100334.59;5015330;28;20046;-72
2022/12/12 00:36:23;;;;;;;3.05;1.63;;;;;;;8.03;99.23;100339.69;5020209;28;20651;-72
2022/12/12 00:38:55;;;;;;;3.22;2.30;;;;;;;8.01;99.37;100341.34;5025504;28;20045;-75
2022/12/12 00:41:25;;;;;;;11.43;5.37;;;;;;;7.94;100.00;100345.41;5022368;28;20115;-74
2022/12/12 00:43:53;;;;;;;8.77;4.05;;;;;;;7.88;100.00;100341.75;5022226;28;20799;-73
2022/12/12 00:46:24;;;;;;;5.40;2.00;;;;;;;7.82;100.00;100354.44;5022496;28;20578;-73
2022/12/12 00:48:56;;;;;;;2.67;1.60;;;;;;;7.71;100.00;100347.19;5020448;28;20046;-73
2022/12/12 00:51:26;;;;;;;2.72;1.60;;;;;;;7.66;100.00;100353.91;5021281;28;20057;-73
2022/12/12 00:53:56;;;;;;;6.63;1.70;;;;;;;7.62;100.00;100356.31;5016841;28;20050;-74
2022/12/12 00:56:26;;;;;;;3.35;1.88;;;;;;;7.63;100.00;100356.38;5022854;28;20144;-74
2022/12/12 00:58:55;;;;;;;2.10;1.50;;;;;;;7.62;100.00;100366.63;5021191;28;20049;-74
2022/12/12 01:01:26;;;;;;;3.55;1.33;;;;;;;7.60;100.00;100363.09;5024053;28;20053;-75
2022/12/12 01:03:55;;;;;;;4.38;2.45;;;;;;;7.62;100.00;100366.63;5022574;28;20073;-73
2022/12/12 01:06:24;;;;;;;3.80;2.00;;;;;;;7.63;100.00;100363.19;5020208;28;20057;-79
2022/12/12 01:08:55;;;;;;;4.80;1.63;;;;;;;7.66;100.00;100368.47;5017756;28;20665;-74
2022/12/12 01:11:24;;;;;;;3.83;1.90;;;;;;;7.70;100.00;100376.38;5023915;28;20064;-73
2022/12/12 01:13:54;;;;;;;3.85;1.90;;;;;;;7.69;100.00;100374.59;5019196;28;20096;-74
2022/12/12 01:16:24;;;;;;;3.13;2.00;;;;;;;7.72;100.00;100374.72;5016942;28;20050;-73
2022/12/12 01:18:53;;;;;;;3.15;1.70;;;;;;;7.73;100.00;100373.88;5026201;28;20053;-74
2022/12/12 01:21:22;;;;;;;3.80;2.13;;;;;;;7.73;100.00;100381.63;5020680;28;20056;-74
2022/12/12 01:23:51;;;;;;;5.28;1.75;;;;;;;7.73;100.00;100378.16;5032524;28;20056;-72
2022/12/12 01:26:24;;;;;;;2.70;1.92;;;;;;;7.70;100.00;100373.78;5021522;28;20056;-74
2022/12/12 01:28:54;;;;;;;3.72;2.35;;;;;;;7.70;100.00;100376.38;5037403;28;20645;-73
2022/12/12 01:31:23;;;;;;;4.50;2.30;;;;;;;7.72;100.00;100385.03;5024154;28;20103;-72
2022/12/12 01:33:52;;;;;;;7.07;2.22;;;;;;;7.72;100.00;100385.03;5019418;28;20138;-74
2022/12/12 01:36:22;;;;;;;6.05;2.95;;;;;;;7.73;100.00;100383.31;5021876;28;20119;-75
2022/12/12 01:38:53;;;;;;;4.80;2.38;;;;;;;7.72;100.00;100390.19;5019644;28;20049;-74
2022/12/12 01:41:24;;;;;;;4.72;2.00;;;;;;;7.71;100.00;100393.56;5020455;28;20045;-75
2022/12/12 01:43:53;;;;;;;2.53;1.67;;;;;;;7.69;100.00;100394.31;5019406;28;20443;-75
2022/12/12 01:46:39;;;;;;;2.92;1.83;;;;;;;7.71;100.00;100403.00;5016293;28;20054;-75
2022/12/12 01:49:16;;;;;;;3.88;2.20;;;;;;;7.71;100.00;100403.84;5014414;28;20519;-75
2022/12/12 01:51:46;;;;;;;2.92;1.88;;;;;;;7.66;100.00;100395.09;5016862;28;20041;-76
2022/12/12 01:54:18;;;;;;;3.33;1.95;;;;;;;7.61;100.00;100401.78;5018609;28;20060;-77
2022/12/12 01:56:50;;;;;;;3.53;1.98;;;;;;;7.54;100.00;100404.97;5021916;28;20152;-75
2022/12/12 01:59:22;;;;;;;4.07;2.25;;;;;;;7.51;100.00;100404.84;5021281;28;20052;-74
2022/12/12 02:01:50;;;;;;;2.97;1.60;;;;;;;7.53;100.00;100405.78;5013266;28;20056;-75
2022/12/12 02:04:20;;;;;;;4.05;1.92;;;;;;;7.50;100.00;100397.97;5019338;28;20053;-78
2022/12/12 02:06:49;;;;;;;4.68;2.20;;;;;;;7.44;100.00;100402.88;5018057;28;20049;-75
2022/12/12 02:09:20;;;;;;;3.22;1.58;;;;;;;7.47;100.00;100408.16;5022892;28;20581;-75
2022/12/12 02:11:51;;;;;;;2.38;1.58;;;;;;;7.50;100.00;100413.41;5020012;28;20142;-76
2022/12/12 02:14:26;;;;;;;2.65;1.75;;;;;;;7.45;100.00;100400.38;5025251;28;20064;-75
2022/12/12 02:17:18;;;;;;;3.58;2.50;;;;;;;7.54;100.00;100416.16;5018664;28;20053;-76
2022/12/12 02:20:35;;;;;;;2.90;1.50;;;;;;;7.52;100.00;100410.06;4995285;28;20054;-74
2022/12/12 02:23:31;;;;;;;3.15;1.80;;;;;;;7.54;100.00;100421.28;5003368;28;20475;-75
2022/12/12 02:26:34;;;;;;;5.10;2.15;;;;;;;7.55;100.00;100432.47;5001908;28;20469;-80
2022/12/12 02:29:47;;;;;;;3.33;2.20;;;;;;;7.55;100.00;100432.47;5008145;28;20470;-80
2022/12/12 02:32:27;;;;;;;3.15;2.00;;;;;;;7.54;100.00;100433.28;5004349;28;20504;-79
2022/12/12 02:35:06;;;;;;;3.50;1.83;;;;;;;7.52;100.00;100440.94;5011796;28;20053;-79
2022/12/12 02:37:42;;;;;;;2.70;2.20;;;;;;;7.55;100.00;100437.59;5009765;28;20050;-79
2022/12/12 02:40:18;;;;;;;3.35;2.10;;;;;;;7.55;100.00;100437.59;5008867;28;20112;-80
2022/12/12 02:42:56;;;;;;;3.95;2.03;;;;;;;7.49;100.00;100429.66;5009879;28;20049;-79
2022/12/12 02:45:34;;;;;;;5.47;2.30;;;;;;;7.56;100.00;100441.97;5008557;28;20109;-79
2022/12/12 02:48:10;;;;;;;3.85;1.70;;;;;;;7.56;100.00;100449.69;5004530;28;20054;-80
2022/12/12 02:50:41;;;;;;;5.38;1.83;;;;;;;7.56;100.00;100449.69;5002255;28;20041;-79
2022/12/12 02:53:10;;;;;;;3.33;1.92;;;;;;;7.55;100.00;100451.34;5011235;28;20054;-79
2022/12/12 02:55:39;;;;;;;3.08;1.77;;;;;;;7.54;100.00;100459.91;5015889;28;20137;-78
2022/12/12 02:58:08;;;;;;;3.67;1.73;;;;;;;7.55;100.00;100453.06;5006998;28;20451;-83
2022/12/12 03:00:53;;;;;;;2.55;1.77;;;;;;;7.51;100.00;100458.91;5004993;28;20046;-81
2022/12/12 03:09:45;;;;;;;3.65;1.95;;;;;;;7.43;100.00;100479.22;5003567;28;20099;-78
2022/12/12 03:12:23;;;;;;;5.43;2.20;;;;;;;7.43;100.00;100473.22;5005725;28;20045;-79
2022/12/12 03:14:59;;;;;;;2.75;2.00;;;;;;;7.43;100.00;100470.63;5004918;28;20057;-80
2022/12/12 03:17:34;;;;;;;3.28;1.83;;;;;;;7.44;100.00;100475.81;5004777;28;20606;-79
2022/12/12 03:20:15;;;;;;;2.08;1.65;;;;;;;7.47;100.00;100475.09;5019277;28;20104;-79
2022/12/12 03:22:50;;;;;;;3.17;1.58;;;;;;;7.49;100.00;100486.28;5019817;28;20060;-79
2022/12/12 03:25:25;;;;;;;2.80;1.50;;;;;;;7.48;100.00;100484.53;5023119;28;20061;-79
2022/12/12 03:28:02;;;;;;;3.33;2.22;;;;;;;7.47;100.00;100485.38;5025765;28;20051;-79
2022/12/12 03:30:38;;;;;;;3.75;2.08;;;;;;;7.49;100.00;100488.88;5029997;28;20049;-79
2022/12/12 03:33:15;;;;;;;2.05;1.55;;;;;;;7.46;100.00;100483.63;5022829;28;20111;-79
2022/12/12 03:35:48;;;;;;;4.93;1.88;;;;;;;7.40;100.00;100493.66;5023176;28;20052;-79
2022/12/12 03:38:21;;;;;;;6.90;1.90;;;;;;;7.36;100.00;100494.38;5024267;28;20103;-80
2022/12/12 03:40:50;;;;;;;;;;;;;;;7.34;100.00;100492.63;5026987;28;20531;-80
2022/12/12 03:43:29;;;;;;;2.83;1.33;;;;;;;7.37;100.00;100498.72;5026172;28;20354;-80
2022/12/12 03:46:03;;;;;;;2.00;1.52;;;;;;;7.38;100.00;100505.63;5025653;28;20050;-80
2022/12/12 03:48:35;;;;;;;3.25;1.73;;;;;;;7.37;100.00;100509.00;5023735;28;20511;-79
2022/12/12 03:51:08;;;;;;;2.80;1.60;;;;;;;7.34;100.00;100509.75;5017511;28;20052;-79
2022/12/12 03:53:43;;;;;;;2.80;1.55;;;;;;;7.33;100.00;100518.31;5025610;28;20041;-80
2022/12/12 03:56:18;;;;;;;2.83;1.77;;;;;;;7.34;100.00;100515.78;5023206;28;20049;-80
2022/12/12 03:58:52;;;;;;;4.10;1.98;;;;;;;7.34;100.00;100515.78;5023959;28;20073;-80
2022/12/12 04:01:24;;;;;;;4.93;2.00;;;;;;;7.36;100.00;100522.72;5020747;28;20499;-81
2022/12/12 04:03:57;;;;;;;3.10;1.80;;;;;;;7.31;100.00;100528.53;5024286;28;20057;-81
2022/12/12 04:06:34;;;;;;;5.07;2.00;;;;;;;7.37;100.00;100534.75;5021552;28;20045;-81
2022/12/12 04:15:14;;;;;;;5.28;2.58;;;;;;;7.38;100.00;100541.66;5027434;28;20051;-81
2022/12/12 04:17:53;;;;;;;23.95;9.07;;;;;;;7.40;100.00;100540.91;5006332;28;20525;-81
2022/12/12 04:23:22;;;;;;;4.50;2.65;;;;;;;7.37;100.00;100555.34;5026369;28;20072;-81
2022/12/12 04:28:56;;;;;;;5.97;2.88;;;;;;;7.34;100.00;100546.66;5026854;28;20106;-81
2022/12/12 04:31:29;;;;;;;5.18;2.92;;;;;;;7.28;100.00;100555.84;5023363;28;20049;-80
2022/12/12 04:33:59;;;;;;;;;;;;;;;7.27;100.00;100556.69;5025702;28;20057;-82
2022/12/12 04:36:29;;;;;;;3.47;2.80;;;;;;;7.23;100.00;100565.09;5021968;28;19925;-81
2022/12/12 04:39:01;;;;;;;4.07;1.85;;;;;;;7.20;100.00;100568.41;5017704;28;20634;-81
2022/12/12 04:41:32;;;;;;;4.75;3.38;;;;;;;7.16;100.00;100569.09;5019667;28;20049;-81
2022/12/12 04:44:02;;;;;;;6.38;2.70;;;;;;;7.18;100.00;100571.75;5023057;28;20066;-81
2022/12/12 04:46:33;;;;;;;5.30;3.30;;;;;;;7.12;100.00;100560.41;5027010;28;20064;-81
2022/12/12 04:49:07;;;;;;;8.20;3.30;;;;;;;7.22;100.00;100574.50;5025913;28;20519;-82
2022/12/12 04:51:42;;;;;;;5.57;3.13;;;;;;;7.22;100.00;100577.09;5026952;28;20053;-81
2022/12/12 04:54:16;;;;;;;5.50;2.50;;;;;;;7.22;100.00;100578.78;5016664;28;20072;-80
2022/12/12 04:56:49;;;;;;;4.00;2.83;;;;;;;7.22;100.00;100586.50;5020504;28;20049;-81
2022/12/12 04:59:18;;;;;;;5.50;2.88;;;;;;;7.23;100.00;100586.53;5026209;28;20053;-81
2022/12/12 05:01:54;;;;;;;6.97;3.13;;;;;;;7.21;100.00;100585.59;5024550;28;20124;-81
2022/12/12 05:04:29;;;;;;;4.28;2.60;;;;;;;7.20;100.00;100580.41;5023546;28;20514;-81
2022/12/12 05:07:03;;;;;;;7.65;3.60;;;;;;;7.19;100.00;100581.22;5023645;28;20132;-82
2022/12/12 05:09:34;;;;;;;6.13;3.00;;;;;;;7.19;100.00;100587.22;5019698;28;20590;-83
2022/12/12 05:12:03;;;;;;;12.73;6.20;;;;;;;7.20;100.00;100589.00;5025737;28;20081;-83
2022/12/12 05:14:32;;;;;;;17.20;6.78;;;;;;;7.20;100.00;100578.72;5024488;28;20054;-83
2022/12/12 05:17:06;;;;;;;31.27;10.48;;;;;;;7.22;100.00;100584.81;5028537;28;20056;-84
2022/12/12 05:19:34;;;;;;;19.27;10.00;;;;;;;7.23;100.00;100588.25;5030076;28;20120;-76
2022/12/12 05:22:03;;;;;;;25.13;11.40;;;;;;;7.21;100.00;100580.44;5024887;28;20050;-78
2022/12/12 05:24:33;;;;;;;24.45;11.60;;;;;;;7.21;100.00;100588.16;5025552;28;20056;-77
2022/12/12 05:27:02;;;;;;;15.40;8.68;;;;;;;7.22;100.00;100589.94;5022491;28;20049;-80
2022/12/12 05:29:31;;;;;;;17.00;9.18;;;;;;;7.21;100.00;100595.91;5022786;28;20491;-78
2022/12/12 05:31:59;;;;;;;25.92;10.57;;;;;;;7.20;100.00;100596.72;5022001;28;20088;-79
2022/12/12 05:34:28;;;;;;;18.92;9.73;;;;;;;7.18;100.00;100597.47;5027399;28;20041;-77
2022/12/12 05:36:57;;;;;;;20.73;9.55;;;;;;;7.17;100.00;100604.34;5022334;28;20057;-80
2022/12/12 05:39:25;;;;;;;20.15;9.40;;;;;;;7.18;100.00;100608.66;5033920;28;20049;-80
2022/12/12 05:41:55;;;;;;;21.88;9.13;;;;;;;7.15;100.00;100611.09;5026602;28;20054;-78
2022/12/12 05:44:24;;;;;;;14.35;7.45;;;;;;;7.16;100.00;100618.00;5025712;28;20049;-79
2022/12/12 05:46:53;;;;;;;14.68;7.05;;;;;;;7.16;100.00;100617.13;5029608;28;20049;-79
2022/12/12 05:49:21;;;;;;;15.82;7.75;;;;;;;7.16;100.00;100612.84;5029871;28;20052;-79
2022/12/12 05:51:50;;;;;;;16.63;7.00;;;;;;;7.14;100.00;100617.06;5026992;28;20623;-81
2022/12/12 05:54:18;;;;;;;12.73;6.40;;;;;;;7.10;100.00;100621.22;5026656;28;20470;-81
2022/12/12 05:56:47;;;;;;;16.55;7.82;;;;;;;7.06;100.00;100610.72;5026219;28;20083;-80
2022/12/12 05:59:17;;;;;;;13.50;7.60;;;;;;;7.05;100.00;100619.25;5019713;28;20686;-79
2022/12/12 06:01:45;;;;;;;12.43;6.70;;;;;;;7.03;100.00;100618.28;5017380;28;20628;-78
2022/12/12 06:04:14;;;;;;;11.95;6.97;;;;;;;7.02;100.00;100619.13;5027871;28;20083;-78
2022/12/12 06:06:43;;;;;;;15.48;8.43;;;;;;;6.98;100.00;100622.38;5026447;28;20064;-82
2022/12/12 06:09:11;;;;;;;14.32;6.20;;;;;;;6.85;100.00;100621.88;5022714;28;20053;-81
2022/12/12 06:11:40;;;;;;;12.98;6.38;;;;;;;6.74;100.00;100623.13;5030718;28;20108;-78
2022/12/12 06:14:08;;;;;;;11.32;5.07;;;;;;;6.63;100.00;100627.78;5026501;28;20158;-82
2022/12/12 06:16:39;;;;;;;7.82;4.25;;;;;;;6.57;100.00;100635.22;5024194;28;20046;-81
2022/12/12 06:19:07;;;;;;;8.45;3.88;;;;;;;6.50;100.00;100634.09;5025672;28;20053;-79
2022/12/12 06:21:36;;;;;;;7.68;3.55;;;;;;;6.50;100.00;100639.25;5020672;28;20052;-76
2022/12/12 06:24:07;;;;;;;9.60;3.83;;;;;;;6.49;100.00;100642.59;5027145;28;20363;-83
2022/12/12 06:26:35;;;;;;;9.07;2.85;;;;;;;6.44;100.00;100631.25;5029766;28;20049;-86
2022/12/12 06:29:04;;;;;;;10.20;3.28;;;;;;;6.35;100.00;100638.56;5024566;28;20119;-81
2022/12/12 06:31:33;;;;;;;11.00;3.45;;;;;;;6.31;100.00;100641.78;5022919;28;20097;-82
2022/12/12 06:34:03;;;;;;;6.07;3.00;;;;;;;6.30;100.00;100645.19;5025616;28;20115;-82
2022/12/12 06:36:32;;;;;;;4.78;2.67;;;;;;;6.30;100.00;100642.63;5024298;28;20049;-82
2022/12/12 06:39:02;;;;;;;6.05;3.63;;;;;;;6.22;100.00;100625.97;5027633;28;20076;-81
2022/12/12 06:41:32;;;;;;;6.95;3.10;;;;;;;6.28;100.00;100646.81;5024134;28;20065;-81
2022/12/12 06:44:01;;;;;;;5.32;3.15;;;;;;;6.23;100.00;100648.25;5026797;28;20045;-83
2022/12/12 06:46:30;;;;;;;10.07;3.20;;;;;;;6.20;100.00;100654.16;5025295;28;20064;-83
2022/12/12 06:48:59;;;;;;;6.38;3.42;;;;;;;6.12;100.00;100662.34;5029035;28;20766;-82
2022/12/12 06:51:32;;;;;;;5.13;3.38;;;;;;;6.07;100.00;100663.00;5024655;28;20049;-83
2022/12/12 06:54:00;;;;;;;7.35;2.75;;;;;;;6.04;100.00;100659.41;5026099;28;20049;-83
2022/12/12 06:56:29;;;;;;;5.78;2.78;;;;;;;6.04;100.00;100661.97;5028319;28;20053;-83
2022/12/12 06:59:00;;;;;;;4.85;2.72;;;;;;;6.02;100.00;100667.03;5024257;28;20050;-82
2022/12/12 07:01:28;;;;;;;5.70;3.10;;;;;;;5.99;100.00;100660.88;5023360;28;20053;-83
2022/12/12 07:03:57;;;;;;;4.43;2.75;;;;;;;5.94;100.00;100660.66;5026503;28;20621;-82
2022/12/12 07:06:26;;;;;;;5.47;2.08;;;;;;;5.93;100.00;100658.84;5026572;28;20038;-83
2022/12/12 07:08:58;;;;;;;4.70;2.60;;;;;;;5.90;100.00;100651.03;5025670;28;20041;-82
2022/12/12 07:11:27;;;;;;;3.33;2.13;;;;;;;5.90;100.00;100658.72;5025735;28;20209;-82
2022/12/12 07:13:58;;;;;;;4.00;2.65;;;;;;;5.88;100.00;100668.03;5024358;28;20122;-82
2022/12/12 07:16:27;;;;;;;3.33;2.08;;;;;;;5.87;100.00;100664.59;5029151;28;20042;-83
2022/12/12 07:18:56;;;;;;;7.20;3.28;;;;;;;5.85;100.00;100665.34;5023917;28;20064;-82
2022/12/12 07:21:24;;;;;;;8.15;3.08;;;;;;;5.78;100.00;100673.56;5003573;28;20045;-82
2022/12/12 07:23:53;;;;;;;8.50;3.67;;;;;;;5.75;100.00;100673.41;5009876;28;20054;-82
2022/12/12 07:26:24;;;;;;;7.00;2.67;;;;;;;5.70;100.00;100675.75;5010588;28;20124;-83
2022/12/12 07:28:52;;;;;;;5.20;2.92;;;;;;;5.56;100.00;100662.25;5008203;28;20041;-82
2022/12/12 07:31:24;;;;;;;7.22;2.80;;;;;;;5.59;100.00;100675.25;5008069;28;20046;-83
2022/12/12 07:33:54;;;;;;;4.97;2.47;;;;;;;5.57;100.00;100671.75;5007569;28;20054;-82
2022/12/12 07:36:22;;;;;;;6.00;2.70;;;;;;;5.56;100.00;100677.66;5009601;28;20100;-82
2022/12/12 07:38:51;;;;;;;5.13;2.63;;;;;;;5.52;100.00;100683.47;5009714;28;20068;-82
2022/12/12 07:41:20;;;;;;;4.07;2.55;;;;;;;5.48;100.00;100675.56;5006895;28;20053;-82
2022/12/12 07:43:51;;;;;;;4.38;2.70;;;;;;;5.45;100.00;100686.53;5011211;28;20088;-81
2022/12/12 07:46:21;;;;;;;4.10;2.33;;;;;;;5.45;100.00;100686.53;5008857;28;20057;-84
2022/12/12 07:48:50;;;;;;;5.07;2.28;;;;;;;5.45;100.00;100686.53;5012244;28;20053;-81
2022/12/12 07:51:19;;;;;;;3.97;2.60;;;;;;;5.42;100.00;100681.25;5008151;28;20050;-81
2022/12/12 07:53:48;;;;;;;10.23;3.03;;;;;;;5.39;100.00;100683.69;5007704;28;20042;-80
2022/12/12 07:56:18;;;;;;;9.70;3.00;;;;;;;5.36;100.00;100686.06;5008965;28;20049;-81
2022/12/12 07:58:47;;;;;;;5.82;3.05;;;;;;;5.32;100.00;100681.63;5009246;28;20050;-80
2022/12/12 08:01:19;;;;;;;7.32;3.60;;;;;;;5.29;100.00;100684.00;5008106;28;20139;-81
2022/12/12 08:03:49;;;;;;;7.55;3.25;;;;;;;5.24;100.00;100679.56;5008243;28;20077;-81
2022/12/12 08:06:19;;;;;;;5.57;3.15;;;;;;;5.18;100.00;100676.69;5006983;28;20057;-80
2022/12/12 08:08:48;;;;;;;9.10;3.70;;;;;;;5.15;100.00;100683.31;5008579;28;20072;-81
2022/12/12 08:11:21;;;;;;;7.75;3.33;;;;;;;5.10;100.00;100680.53;5009838;28;20108;-81
2022/12/12 08:13:49;;;;;;;;;;;;;;;5.06;100.00;100686.31;5014321;28;20042;-82
2022/12/12 08:16:21;;;;;;;7.90;3.38;;;;;;;5.01;100.00;100682.63;5011137;28;20005;-82
2022/12/12 08:18:51;;;;;;;6.70;3.08;;;;;;;4.98;100.00;100679.91;5009619;28;20057;-82
2022/12/12 08:21:20;;;;;;;6.72;3.78;;;;;;;4.93;100.00;100686.50;5026318;28;20451;-83
2022/12/12 08:23:48;;;;;;;9.40;3.75;;;;;;;4.88;100.00;100686.28;5029379;28;20334;-82
2022/12/12 08:26:18;;;;;;;9.38;3.30;;;;;;;4.86;100.00;100694.69;5022768;28;20061;-83
2022/12/12 08:28:48;;;;;;;4.55;2.88;;;;;;;4.80;100.00;100687.56;5028913;28;20045;-83
2022/12/12 08:31:20;;;;;;;9.38;3.60;;;;;;;4.73;100.00;100696.59;5026424;28;20120;-82
2022/12/12 08:33:49;;;;;;;6.50;2.83;;;;;;;4.70;100.00;100699.03;5025156;28;20057;-83
2022/12/12 08:36:19;;;;;;;11.07;3.55;;;;;;;4.64;100.00;100705.50;5029244;28;20891;-82
2022/12/12 08:38:48;;;;;;;11.70;3.78;;;;;;;4.59;100.00;100701.00;5027189;28;20100;-83
2022/12/12 08:41:18;;;;;;;11.80;3.40;;;;;;;4.56;100.00;100700.00;5027099;28;20053;-84
2022/12/12 08:43:46;;;;;;;8.80;3.38;;;;;;;4.56;100.00;100711.09;5023829;28;20063;-83
2022/12/12 08:46:16;;;;;;;10.88;4.15;;;;;;;4.55;100.00;100714.47;5027861;28;20060;-83
2022/12/12 08:48:53;;;;;;;7.70;3.40;;;;;;;4.53;100.00;100710.06;5031437;28;20112;-80
2022/12/12 08:51:22;;;;;;;6.88;4.07;;;;;;;4.50;100.00;100713.34;5025649;28;20238;-81
2022/12/12 08:53:51;;;;;;;10.93;5.10;;;;;;;4.46;100.00;100718.22;5026597;28;20075;-81
2022/12/12 08:56:21;;;;;;;11.13;4.30;;;;;;;4.40;100.00;100722.22;5029649;28;20046;-81
2022/12/12 08:58:50;;;;;;;12.70;4.45;;;;;;;4.38;100.00;100731.50;5026496;28;20048;-81
2022/12/12 09:01:22;;;;;;;9.10;4.40;;;;;;;4.33;100.00;100730.38;5027638;28;20503;-81
2022/12/12 09:03:53;;;;;;;12.40;4.50;;;;;;;4.31;100.00;100729.41;5023345;28;20049;-80
2022/12/12 09:06:23;;;;;;;9.05;4.10;;;;;;;4.27;100.00;100739.41;5024735;28;20095;-82
2022/12/12 09:08:51;;;;;;;9.95;3.75;;;;;;;4.24;100.00;100737.56;5025262;28;20215;-81
2022/12/12 09:11:20;;;;;;;8.13;4.38;;;;;;;4.21;100.00;100737.38;5024754;28;20046;-81
2022/12/12 09:13:48;;;;;;;9.13;4.20;;;;;;;4.18;100.00;100739.78;5027099;28;20057;-82
2022/12/12 09:16:18;;;;;;;8.98;4.53;;;;;;;4.07;100.00;100728.94;5023753;28;20060;-81
2022/12/12 09:18:46;;;;;;;9.88;4.47;;;;;;;4.10;100.00;100738.47;5024275;28;20047;-82
2022/12/12 09:21:17;;;;;;;11.82;4.63;;;;;;;4.07;100.00;100740.88;5021864;28;20115;-80
2022/12/12 09:23:45;;;;;;;13.75;4.47;;;;;;;4.01;99.71;100744.00;5022850;28;20053;-82
2022/12/12 09:26:14;;;;;;;11.07;4.07;;;;;;;3.97;100.00;100749.72;5026876;28;20214;-82
2022/12/12 09:28:43;;;;;;;7.60;3.83;;;;;;;3.92;100.00;100753.72;5028650;28;20053;-82
2022/12/12 09:31:13;;;;;;;10.48;4.78;;;;;;;3.87;100.00;100753.47;5025607;28;20077;-82
2022/12/12 09:33:41;;;;;;;9.82;4.07;;;;;;;3.86;100.00;100754.22;5027130;28;20767;-82
2022/12/12 09:36:11;;;;;;;8.43;3.55;;;;;;;3.81;100.00;100757.34;5023152;28;20129;-82
2022/12/12 09:38:42;;;;;;;10.70;4.95;;;;;;;3.76;100.00;100762.22;5026439;28;20048;-82
2022/12/12 09:41:16;;;;;;;10.57;3.75;;;;;;;3.74;100.00;100766.34;5024467;28;20058;-82
2022/12/12 09:43:51;;;;;;;8.70;4.22;;;;;;;3.72;100.00;100770.50;5023616;28;20051;-82
2022/12/12 09:46:33;;;;;;;12.98;4.50;;;;;;;3.69;100.00;100775.44;5025920;28;20517;-81
2022/12/12 09:49:12;;;;;;;8.70;3.78;;;;;;;3.62;99.73;100773.31;5030754;28;20080;-83
2022/12/12 09:51:43;;;;;;;10.50;3.88;;;;;;;3.57;100.00;100788.38;5023382;28;20562;-81
2022/12/12 09:54:17;;;;;;;8.38;3.40;;;;;;;3.49;99.53;100780.28;5020903;28;20038;-81
2022/12/12 09:56:56;;;;;;;8.65;4.20;;;;;;;3.46;100.00;100787.78;5024345;28;20056;-81
2022/12/12 09:59:33;;;;;;;7.43;3.55;;;;;;;3.44;100.00;100784.25;5024774;28;20060;-81
2022/12/12 10:02:18;;;;;;;7.38;3.38;;;;;;;3.43;100.00;100791.84;5022305;28;20546;-81
2022/12/12 10:04:54;;;;;;;5.03;2.83;;;;;;;3.40;100.00;100795.09;5022930;28;20423;-81
2022/12/12 10:07:33;;;;;;;6.60;2.95;;;;;;;3.39;100.00;100801.03;5023534;28;20050;-80
2022/12/12 10:10:09;;;;;;;10.90;3.72;;;;;;;3.39;100.00;100801.03;5020912;28;20058;-81
2022/12/12 10:12:39;;;;;;;6.18;3.03;;;;;;;3.36;100.00;100799.13;5022458;28;20435;-80
2022/12/12 10:15:13;;;;;;;5.63;2.95;;;;;;;3.36;100.00;100800.81;5017613;28;20049;-81
2022/12/12 10:17:46;;;;;;;6.88;3.25;;;;;;;3.36;100.00;100803.38;5019831;28;20459;-82
2022/12/12 10:20:19;;;;;;;5.80;3.05;;;;;;;3.36;100.00;100806.81;5025677;28;20410;-82
2022/12/12 10:22:51;;;;;;;9.07;2.63;;;;;;;3.39;100.00;100811.25;5025046;28;20108;-81
2022/12/12 10:25:26;;;;;;;9.77;3.50;;;;;;;3.40;100.00;100810.44;5026093;28;20808;-81
2022/12/12 10:27:57;;;;;;;5.38;3.30;;;;;;;3.44;100.00;100812.41;5027474;28;20038;-81
2022/12/12 10:30:26;;;;;;;8.35;2.60;;;;;;;3.47;100.00;100821.91;5025450;28;20053;-82
2022/12/12 10:33:14;;;;;;;6.43;3.40;;;;;;;3.48;100.00;100816.91;5018404;28;20049;-81
2022/12/12 10:35:50;;;;;;;6.00;3.22;;;;;;;3.51;100.00;100826.44;5021645;28;20042;-81
2022/12/12 10:38:29;;;;;;;6.32;2.20;;;;;;;3.52;100.00;100835.84;5023609;28;20049;-82
2022/12/12 10:41:09;;;;;;;5.10;2.58;;;;;;;3.53;100.00;100835.97;5022928;28;20057;-82
2022/12/12 10:43:46;;;;;;;6.85;2.60;;;;;;;3.54;100.00;100832.59;5019427;28;20618;-81
2022/12/12 10:46:21;;;;;;;5.25;2.25;;;;;;;3.56;100.00;100841.25;5024617;28;20096;-82
2022/12/12 10:48:50;;;;;;;4.95;2.30;;;;;;;3.58;100.00;100838.78;5023406;28;20046;-82
2022/12/12 10:51:21;;;;;;;6.63;2.30;;;;;;;3.60;100.00;100843.97;5030900;28;20696;-83
2022/12/12 10:53:50;;;;;;;6.22;2.38;;;;;;;3.62;100.00;100837.28;5028081;28;20056;-82
2022/12/12 10:56:24;;;;;;;6.25;2.20;;;;;;;3.63;100.00;100846.72;5024459;28;20045;-83
2022/12/12 10:58:55;;;;;;;6.32;2.42;;;;;;;3.66;100.00;100852.00;5025155;28;20739;-82
2022/12/12 11:01:27;;;;;;;4.90;2.40;;;;;;;3.65;100.00;100845.16;5028916;28;20141;-84
2022/12/12 11:03:57;;;;;;;6.15;2.08;;;;;;;3.64;100.00;100851.03;5028926;28;20050;-83
2022/12/12 11:06:32;;;;;;;9.50;2.15;;;;;;;3.64;100.00;100856.16;5032711;28;20449;-84
2022/12/12 11:09:07;;;;;;;5.82;1.75;;;;;;;3.65;100.00;100850.25;5025867;28;20608;-84
2022/12/12 11:11:37;;;;;;;6.57;1.98;;;;;;;3.66;100.00;100859.69;5026313;28;20042;-84
2022/12/12 11:14:23;;;;;;;3.38;2.13;;;;;;;3.64;100.00;100853.59;5025369;28;20617;-86
2022/12/12 11:16:52;;;;;;;4.78;1.90;;;;;;;3.64;100.00;100858.72;5027816;28;20131;-82
2022/12/12 11:19:22;;;;;;;4.75;2.35;;;;;;;3.65;100.00;100860.50;5029925;28;20588;-83
2022/12/12 11:21:52;;;;;;;3.75;1.92;;;;;;;3.69;100.00;100863.31;5026476;28;20058;-84
2022/12/12 11:24:23;;;;;;;3.38;1.42;;;;;;;3.71;100.00;100868.50;5024665;28;20050;-82
2022/12/12 11:26:58;;;;;;;7.50;1.67;;;;;;;3.74;100.00;100874.72;5028691;28;20053;-80
2022/12/12 11:29:35;;;;;;;4.05;1.42;;;;;;;3.77;100.00;100874.88;5030935;28;20053;-82
2022/12/12 11:32:04;;;;;;;7.88;2.00;;;;;;;3.82;100.00;100879.38;5030279;28;20141;-83
2022/12/12 11:34:37;;;;;;;4.70;1.23;;;;;;;3.79;100.00;100882.66;5025919;28;20050;-83
2022/12/12 11:37:06;;;;;;;2.95;1.50;;;;;;;3.80;100.00;100891.22;5029482;28;20053;-82
2022/12/12 11:39:42;;;;;;;3.75;1.60;;;;;;;3.81;100.00;100885.31;5029464;28;20745;-83
2022/12/12 11:42:30;;;;;;;4.82;2.35;;;;;;;3.85;100.00;100888.16;5027725;28;20491;-81
2022/12/12 11:45:02;;;;;;;6.45;1.85;;;;;;;3.87;100.00;100888.22;5027624;28;20061;-81
2022/12/12 11:47:37;;;;;;;2.58;1.30;;;;;;;3.92;100.00;100890.28;5029515;28;20582;-81
2022/12/12 11:50:18;;;;;;;3.55;1.58;;;;;;;3.95;100.00;100894.69;5027945;28;20064;-81
2022/12/12 11:52:48;;;;;;;2.47;1.67;;;;;;;3.98;100.00;100898.28;5033106;28;20136;-81
2022/12/12 11:55:18;;;;;;;3.30;1.27;;;;;;;3.95;100.00;100898.13;5029898;28;20049;-81
2022/12/12 11:58:07;;;;;;;3.42;1.55;;;;;;;3.96;100.00;100905.03;5031299;28;20502;-80
2022/12/12 12:00:45;;;;;;;6.22;1.52;;;;;;;3.98;100.00;100911.09;5024134;28;20060;-81
2022/12/12 12:03:28;;;;;;;2.25;1.38;;;;;;;3.95;100.00;100900.66;5025960;28;20037;-81
2022/12/12 12:06:07;;;;;;;4.80;1.48;;;;;;;3.98;100.00;100903.41;5026573;28;20081;-81